createdAt,value
2022-11-28T00:01:36.221Z,22.78
2022-11-28T00:04:06.989Z,22.77
2022-11-28T00:06:38.546Z,22.74
2022-11-28T00:09:07.139Z,22.72
2022-11-28T00:11:35.402Z,22.74
2022-11-28T00:14:03.496Z,22.73
2022-11-28T00:16:31.660Z,22.71
2022-11-28T00:19:01.216Z,22.72
2022-11-28T00:21:31.208Z,22.68
2022-11-28T00:24:00.359Z,22.73
2022-11-28T00:26:30.020Z,22.68
2022-11-28T00:28:58.708Z,22.72
2022-11-28T00:31:29.445Z,22.73
2022-11-28T00:33:58.003Z,22.73
2022-11-28T00:36:26.331Z,22.75
2022-11-28T00:38:56.240Z,22.77
2022-11-28T00:41:25.683Z,22.77
2022-11-28T00:43:53.971Z,22.76
2022-11-28T00:46:23.519Z,22.77
2022-11-28T00:48:52.735Z,22.78
2022-11-28T00:51:23.101Z,22.78
2022-11-28T00:53:52.643Z,22.78
2022-11-28T00:56:23.968Z,22.79
2022-11-28T00:58:52.640Z,22.77
2022-11-28T01:01:23.498Z,22.78
2022-11-28T01:03:53.106Z,22.78
2022-11-28T01:06:26.188Z,22.77
2022-11-28T01:08:54.776Z,22.76
2022-11-28T01:11:24.484Z,22.75
2022-11-28T01:13:54.778Z,22.71
2022-11-28T01:16:23.210Z,22.72
2022-11-28T01:18:51.191Z,22.71
2022-11-28T01:21:20.058Z,22.59
2022-11-28T01:23:48.108Z,22.71
2022-11-28T01:26:18.712Z,22.68
2022-11-28T01:28:48.127Z,22.70
2022-11-28T01:31:18.918Z,22.70
2022-11-28T01:33:46.891Z,22.67
2022-11-28T01:36:16.054Z,22.65
2022-11-28T01:38:44.224Z,22.69
2022-11-28T01:41:12.774Z,22.71
2022-11-28T01:44:01.352Z,22.57
2022-11-28T01:46:29.717Z,22.61
2022-11-28T01:49:00.603Z,22.72
2022-11-28T01:51:30.983Z,22.71
2022-11-28T01:53:59.975Z,22.71
2022-11-28T01:56:32.523Z,22.73
2022-11-28T01:59:08.315Z,22.56
2022-11-28T02:01:36.454Z,22.68
2022-11-28T02:04:05.355Z,22.72
2022-11-28T02:06:34.304Z,22.70
2022-11-28T02:09:02.188Z,22.72
2022-11-28T02:11:47.421Z,22.74
2022-11-28T02:14:31.595Z,22.72
2022-11-28T02:17:11.675Z,22.69
2022-11-28T02:20:25.448Z,22.63
2022-11-28T02:23:03.962Z,22.58
2022-11-28T02:25:57.444Z,22.57
2022-11-28T02:28:51.287Z,22.55
2022-11-28T02:31:30.119Z,22.53
2022-11-28T02:34:03.555Z,22.52
2022-11-28T02:36:36.191Z,22.51
2022-11-28T02:39:14.390Z,22.50
2022-11-28T02:41:48.827Z,22.50
2022-11-28T02:44:20.032Z,22.47
2022-11-28T02:46:56.780Z,22.50
2022-11-28T02:49:31.029Z,22.47
2022-11-28T02:52:03.798Z,22.49
2022-11-28T02:54:32.738Z,22.48
2022-11-28T02:57:00.664Z,22.49
2022-11-28T02:59:45.771Z,22.50
2022-11-28T03:02:17.120Z,22.48
2022-11-28T03:04:53.543Z,22.50
2022-11-28T03:07:32.279Z,22.49
2022-11-28T03:10:15.651Z,22.48
2022-11-28T03:12:52.935Z,22.47
2022-11-28T03:15:24.371Z,22.47
2022-11-28T03:18:01.785Z,22.47
2022-11-28T03:20:40.887Z,22.47
2022-11-28T03:23:15.780Z,22.48
2022-11-28T03:25:56.459Z,22.47
2022-11-28T03:28:28.767Z,22.45
2022-11-28T03:31:01.504Z,22.44
2022-11-28T03:33:34.524Z,22.41
2022-11-28T03:36:09.510Z,22.41
2022-11-28T03:38:41.483Z,22.40
2022-11-28T03:41:15.706Z,22.39
2022-11-28T03:43:48.669Z,22.40
2022-11-28T03:46:19.491Z,22.24
2022-11-28T03:48:50.786Z,22.39
2022-11-28T03:51:25.525Z,22.40
2022-11-28T03:54:01.983Z,22.40
2022-11-28T03:56:37.708Z,22.40
2022-11-28T03:59:11.500Z,22.39
2022-11-28T04:01:48.991Z,22.39
2022-11-28T04:04:23.840Z,22.39
2022-11-28T04:06:59.312Z,22.39
2022-11-28T04:09:40.720Z,22.41
2022-11-28T04:12:13.791Z,22.41
2022-11-28T04:14:50.179Z,22.41
2022-11-28T04:17:25.160Z,22.41
2022-11-28T04:19:58.948Z,22.42
2022-11-28T04:22:32.593Z,22.34
2022-11-28T04:25:05.825Z,22.42
2022-11-28T04:27:39.127Z,22.40
2022-11-28T04:30:09.251Z,22.32
2022-11-28T04:32:41.543Z,22.40
2022-11-28T04:35:13.646Z,22.40
2022-11-28T04:37:48.784Z,22.41
2022-11-28T04:40:17.366Z,22.39
2022-11-28T04:42:52.963Z,22.40
2022-11-28T04:45:26.443Z,22.39
2022-11-28T04:47:55.135Z,22.37
2022-11-28T04:50:26.404Z,22.37
2022-11-28T04:53:01.569Z,22.21
2022-11-28T04:55:34.670Z,22.30
2022-11-28T04:58:10.236Z,22.34
2022-11-28T05:00:39.685Z,22.37
2022-11-28T05:03:08.595Z,22.38
2022-11-28T05:05:44.902Z,22.29
2022-11-28T05:08:14.491Z,22.39
2022-11-28T05:10:42.860Z,22.26
2022-11-28T05:13:11.155Z,22.38
2022-11-28T05:15:39.183Z,22.39
2022-11-28T05:18:07.309Z,22.35
2022-11-28T05:20:35.681Z,22.41
2022-11-28T05:23:03.558Z,22.39
2022-11-28T05:25:32.952Z,22.41
2022-11-28T05:28:00.839Z,22.41
2022-11-28T05:30:28.733Z,22.43
2022-11-28T05:32:56.688Z,22.43
2022-11-28T05:35:24.544Z,22.44
2022-11-28T05:37:52.457Z,22.43
2022-11-28T05:40:20.488Z,22.43
2022-11-28T05:42:49.759Z,22.44
2022-11-28T05:45:17.689Z,22.35
2022-11-28T05:47:45.816Z,22.44
2022-11-28T05:50:13.702Z,22.43
2022-11-28T05:52:41.656Z,22.43
2022-11-28T05:55:10.419Z,22.42
2022-11-28T05:57:38.373Z,22.41
2022-11-28T06:00:09.438Z,22.41
2022-11-28T06:02:40.088Z,22.39
2022-11-28T06:05:27.708Z,22.39
2022-11-28T06:07:56.761Z,22.35
2022-11-28T06:10:24.803Z,22.36
2022-11-28T06:12:52.715Z,22.36
2022-11-28T06:15:21.960Z,22.37
2022-11-28T06:17:49.852Z,22.36
2022-11-28T06:20:17.851Z,22.36
2022-11-28T06:22:47.791Z,22.39
2022-11-28T06:25:15.895Z,22.32
2022-11-28T06:27:43.786Z,22.36
2022-11-28T06:30:12.041Z,22.38
2022-11-28T06:32:41.298Z,22.40
2022-11-28T06:35:09.742Z,22.40
2022-11-28T06:37:37.642Z,22.40
2022-11-28T06:40:07.002Z,22.41
2022-11-28T06:42:35.941Z,22.41
2022-11-28T06:45:04.213Z,22.41
2022-11-28T06:47:32.331Z,22.41
2022-11-28T06:50:01.688Z,22.43
2022-11-28T06:52:29.560Z,22.42
2022-11-28T06:54:57.433Z,22.42
2022-11-28T06:57:25.335Z,22.33
2022-11-28T06:59:53.259Z,22.41
2022-11-28T07:02:22.329Z,22.42
2022-11-28T07:04:50.204Z,22.41
2022-11-28T07:07:19.577Z,22.40
2022-11-28T07:09:47.675Z,22.39
2022-11-28T07:12:15.864Z,22.39
2022-11-28T07:14:43.724Z,22.38
2022-11-28T07:17:11.620Z,22.36
2022-11-28T07:19:39.926Z,22.37
2022-11-28T07:22:07.928Z,22.36
2022-11-28T07:24:37.148Z,22.38
2022-11-28T07:27:05.226Z,22.36
2022-11-28T07:29:36.483Z,22.37
2022-11-28T07:32:05.813Z,22.37
2022-11-28T07:34:33.834Z,22.39
2022-11-28T07:37:01.744Z,22.38
2022-11-28T07:39:29.730Z,22.38
2022-11-28T07:41:59.017Z,22.40
2022-11-28T07:44:27.142Z,22.39
2022-11-28T07:46:55.123Z,22.40
2022-11-28T07:49:23.101Z,22.41
2022-11-28T07:51:50.979Z,22.37
2022-11-28T07:54:18.963Z,22.43
2022-11-28T07:59:36.340Z,22.41
2022-11-28T08:02:04.372Z,22.41
2022-11-28T08:04:32.404Z,22.44
2022-11-28T08:07:00.309Z,22.47
2022-11-28T08:09:28.311Z,22.47
2022-11-28T08:11:56.384Z,22.50
2022-11-28T08:14:24.500Z,22.53
2022-11-28T08:16:53.863Z,22.54
2022-11-28T08:19:24.769Z,22.54
2022-11-28T08:21:52.900Z,22.54
2022-11-28T08:24:20.767Z,22.54
2022-11-28T08:26:48.696Z,22.54
2022-11-28T08:29:16.610Z,22.54
2022-11-28T08:31:44.654Z,22.54
2022-11-28T08:34:13.958Z,22.52
2022-11-28T08:36:43.388Z,22.55
2022-11-28T08:39:27.799Z,22.58
2022-11-28T08:41:57.711Z,22.56
2022-11-28T08:44:26.183Z,22.58
2022-11-28T08:46:54.536Z,22.58
2022-11-28T08:49:23.876Z,22.61
2022-11-28T08:51:52.047Z,22.61
2022-11-28T08:54:20.860Z,22.62
2022-11-28T08:56:49.103Z,22.62
2022-11-28T08:59:17.138Z,22.63
2022-11-28T09:01:45.123Z,22.64
2022-11-28T09:04:13.174Z,22.67
2022-11-28T09:06:42.533Z,22.69
2022-11-28T09:09:10.465Z,22.69
2022-11-28T09:11:38.934Z,22.70
2022-11-28T09:14:07.517Z,22.71
2022-11-28T09:16:35.592Z,22.73
2022-11-28T09:19:03.968Z,22.72
2022-11-28T09:21:31.843Z,22.73
2022-11-28T09:24:01.145Z,22.73
2022-11-28T09:26:29.952Z,22.72
2022-11-28T09:28:57.893Z,22.72
2022-11-28T09:31:25.940Z,22.73
2022-11-28T09:33:54.787Z,22.68
2022-11-28T09:36:24.516Z,22.74
2022-11-28T09:38:52.478Z,22.74
2022-11-28T09:41:57.351Z,22.77
2022-11-28T09:44:28.280Z,22.74
2022-11-28T09:47:00.291Z,22.75
2022-11-28T09:49:40.716Z,22.81
2022-11-28T09:52:26.071Z,22.83
2022-11-28T09:55:02.100Z,22.83
2022-11-28T09:57:36.989Z,22.87
2022-11-28T10:00:07.231Z,22.86
2022-11-28T10:02:48.635Z,22.87
2022-11-28T10:05:24.428Z,22.88
2022-11-28T10:08:10.761Z,22.87
2022-11-28T10:10:52.669Z,22.89
2022-11-28T10:13:36.560Z,22.89
2022-11-28T10:16:22.131Z,22.89
2022-11-28T10:18:53.306Z,22.91
2022-11-28T10:21:27.280Z,22.94
2022-11-28T10:23:59.513Z,22.98
2022-11-28T10:26:33.917Z,22.99
2022-11-28T10:29:11.467Z,23.04
2022-11-28T10:31:43.282Z,23.01
2022-11-28T10:34:17.738Z,23.08
2022-11-28T10:36:55.500Z,23.09
2022-11-28T10:39:23.711Z,23.10
2022-11-28T10:42:12.494Z,23.10
2022-11-28T10:44:53.222Z,23.09
2022-11-28T10:47:34.776Z,23.08
2022-11-28T10:50:08.185Z,23.06
2022-11-28T10:52:45.170Z,23.06
2022-11-28T10:55:27.134Z,23.06
2022-11-28T10:58:05.696Z,23.04
2022-11-28T11:00:36.857Z,23.03
2022-11-28T11:03:05.946Z,23.02
2022-11-28T11:05:36.191Z,23.02
2022-11-28T11:08:11.908Z,22.98
2022-11-28T11:10:44.172Z,22.99
2022-11-28T11:13:16.831Z,22.95
2022-11-28T11:15:47.539Z,22.98
2022-11-28T11:18:24.783Z,22.98
2022-11-28T11:20:53.427Z,22.96
2022-11-28T11:23:23.064Z,22.98
2022-11-28T11:25:54.191Z,22.98
2022-11-28T11:28:42.636Z,22.99
2022-11-28T11:31:22.276Z,22.85
2022-11-28T11:33:53.126Z,22.90
2022-11-28T11:36:28.207Z,23.00
2022-11-28T11:39:08.922Z,23.01
2022-11-28T11:41:36.925Z,22.99
2022-11-28T11:44:30.284Z,23.03
2022-11-28T11:47:03.856Z,22.96
2022-11-28T11:49:34.167Z,23.04
2022-11-28T11:52:04.380Z,23.04
2022-11-28T11:54:32.591Z,23.01
2022-11-28T11:57:30.909Z,23.02
2022-11-28T11:59:53.909Z,23.01
2022-11-28T12:02:31.254Z,23.03
2022-11-28T12:05:06.430Z,22.97
2022-11-28T12:07:40.409Z,23.03
2022-11-28T12:10:13.947Z,22.90
2022-11-28T12:12:42.451Z,23.05
2022-11-28T12:15:17.143Z,23.06
2022-11-28T12:17:59.041Z,23.08
2022-11-28T12:20:47.006Z,23.08
2022-11-28T12:23:30.291Z,23.09
2022-11-28T12:26:07.232Z,23.09
2022-11-28T12:28:47.328Z,23.11
2022-11-28T12:31:22.390Z,23.12
2022-11-28T12:34:04.792Z,23.12
2022-11-28T12:36:37.811Z,23.11
2022-11-28T12:39:18.701Z,23.14
2022-11-28T12:42:17.915Z,23.06
2022-11-28T12:44:58.478Z,22.83
2022-11-28T12:47:41.424Z,23.15
2022-11-28T12:50:23.805Z,23.15
2022-11-28T12:53:00.683Z,23.17
2022-11-28T12:55:35.337Z,23.18
2022-11-28T12:58:10.177Z,23.19
2022-11-28T13:00:50.548Z,23.21
2022-11-28T13:03:34.283Z,23.20
2022-11-28T13:06:14.835Z,23.22
2022-11-28T13:08:58.935Z,23.21
2022-11-28T13:11:57.219Z,23.21
2022-11-28T13:14:35.340Z,23.21
2022-11-28T13:17:14.427Z,23.22
2022-11-28T13:19:53.247Z,23.23
2022-11-28T13:22:25.782Z,23.10
2022-11-28T13:25:01.858Z,23.23
2022-11-28T13:27:37.919Z,23.24
2022-11-28T13:30:18.023Z,23.24
2022-11-28T13:32:50.495Z,23.15
2022-11-28T13:35:20.724Z,23.24
2022-11-28T13:40:52.290Z,23.14
2022-11-28T13:43:27.146Z,23.24
2022-11-28T13:45:55.867Z,23.25
2022-11-28T13:51:41.725Z,23.22
2022-11-28T13:54:48.823Z,23.23
2022-11-28T13:57:25.011Z,23.21
2022-11-28T14:00:02.331Z,23.20
2022-11-28T14:02:45.960Z,23.19
2022-11-28T14:05:34.877Z,23.22
2022-11-28T14:08:04.136Z,23.20
2022-11-28T14:11:05.834Z,23.21
2022-11-28T14:14:01.005Z,23.20
2022-11-28T14:16:45.437Z,23.21
2022-11-28T14:19:26.556Z,23.22
2022-11-28T14:22:07.859Z,23.24
2022-11-28T14:24:56.559Z,23.22
2022-11-28T14:27:29.260Z,23.21
2022-11-28T14:29:58.878Z,23.24
2022-11-28T14:32:33.394Z,23.26
2022-11-28T14:35:03.437Z,23.26
2022-11-28T14:37:50.446Z,23.27
2022-11-28T14:41:01.318Z,23.27
2022-11-28T14:43:32.812Z,23.24
2022-11-28T14:46:21.590Z,23.27
2022-11-28T14:49:21.304Z,23.27
2022-11-28T14:52:38.610Z,23.25
2022-11-28T14:55:18.702Z,23.23
2022-11-28T14:57:56.659Z,23.25
2022-11-28T15:00:28.875Z,23.25
2022-11-28T15:03:20.723Z,23.25
2022-11-28T15:05:51.814Z,23.24
2022-11-28T15:08:58.859Z,23.26
2022-11-28T15:11:43.747Z,23.22
2022-11-28T15:14:21.881Z,23.20
2022-11-28T15:16:56.489Z,23.26
2022-11-28T15:19:27.762Z,23.18
2022-11-28T15:21:57.038Z,23.27
2022-11-28T15:24:27.799Z,23.29
2022-11-28T15:26:59.565Z,23.28
2022-11-28T15:29:29.720Z,23.28
2022-11-28T15:32:01.242Z,23.29
2022-11-28T15:34:31.843Z,23.07
2022-11-28T15:37:01.708Z,23.31
2022-11-28T15:39:35.071Z,23.32
2022-11-28T15:42:06.641Z,23.34
2022-11-28T15:44:37.609Z,23.08
2022-11-28T15:47:18.558Z,23.33
2022-11-28T15:49:47.067Z,23.34
2022-11-28T15:52:18.556Z,23.29
2022-11-28T15:54:51.492Z,23.32
2022-11-28T15:57:21.207Z,23.28
2022-11-28T15:59:49.251Z,23.23
2022-11-28T16:02:23.668Z,23.33
2022-11-28T16:04:56.110Z,23.30
2022-11-28T16:07:24.350Z,23.34
2022-11-28T16:09:58.035Z,23.36
2022-11-28T16:12:27.139Z,23.35
2022-11-28T16:15:01.440Z,23.37
2022-11-28T16:17:33.597Z,23.36
2022-11-28T16:20:04.593Z,23.36
2022-11-28T16:22:36.696Z,23.37
2022-11-28T16:25:21.334Z,23.36
2022-11-28T16:27:53.130Z,23.35
2022-11-28T16:30:36.879Z,23.37
2022-11-28T16:33:36.074Z,23.35
2022-11-28T16:36:12.557Z,23.35
2022-11-28T16:38:41.370Z,23.37
2022-11-28T16:41:16.205Z,23.37
2022-11-28T16:43:47.189Z,23.38
2022-11-28T16:46:22.113Z,23.42
2022-11-28T16:48:56.472Z,23.42
2022-11-28T16:51:45.208Z,23.41
2022-11-28T16:54:30.099Z,23.40
2022-11-28T16:57:09.360Z,23.30
2022-11-28T16:59:37.624Z,23.35
2022-11-28T17:02:13.385Z,23.38
2022-11-28T17:04:42.908Z,23.39
2022-11-28T17:07:13.843Z,23.40
2022-11-28T17:09:42.778Z,23.35
2022-11-28T17:12:18.139Z,23.39
2022-11-28T17:14:46.255Z,23.35
2022-11-28T17:17:15.535Z,23.38
2022-11-28T17:19:45.753Z,23.37
2022-11-28T17:22:16.583Z,23.38
2022-11-28T17:24:44.905Z,23.36
2022-11-28T17:27:14.226Z,23.35
2022-11-28T17:29:43.032Z,23.39
2022-11-28T17:32:13.441Z,23.39
2022-11-28T17:34:42.104Z,23.38
2022-11-28T17:37:11.637Z,23.38
2022-11-28T17:39:39.677Z,23.37
2022-11-28T17:42:07.573Z,23.38
2022-11-28T17:44:37.627Z,23.38
2022-11-28T17:47:07.260Z,23.37
2022-11-28T17:49:35.589Z,23.36
2022-11-28T17:52:03.683Z,23.38
2022-11-28T17:54:33.008Z,23.38
2022-11-28T17:57:01.539Z,23.37
2022-11-28T17:59:29.508Z,23.38
2022-11-28T18:01:57.769Z,23.37
2022-11-28T18:04:26.289Z,23.27
2022-11-28T18:06:54.237Z,23.40
2022-11-28T18:09:22.256Z,23.36
2022-11-28T18:11:51.787Z,23.39
2022-11-28T18:14:20.113Z,23.39
2022-11-28T18:16:48.798Z,23.39
2022-11-28T18:19:16.856Z,23.35
2022-11-28T18:21:45.077Z,23.37
2022-11-28T18:24:13.389Z,23.36
2022-11-28T18:26:42.343Z,23.36
2022-11-28T18:29:11.617Z,23.35
2022-11-28T18:31:39.663Z,23.35
2022-11-28T18:34:09.555Z,23.36
2022-11-28T18:36:39.506Z,23.34
2022-11-28T18:39:10.398Z,23.26
2022-11-28T18:41:40.219Z,23.16
2022-11-28T18:44:08.999Z,23.29
2022-11-28T18:46:39.900Z,23.30
2022-11-28T18:49:08.354Z,23.30
2022-11-28T18:51:36.941Z,23.29
2022-11-28T18:54:06.794Z,23.31
2022-11-28T18:56:35.811Z,23.31
2022-11-28T18:59:04.244Z,23.32
2022-11-28T19:01:34.042Z,23.29
2022-11-28T19:04:06.962Z,23.28
2022-11-28T19:06:36.589Z,23.24
2022-11-28T19:09:07.082Z,23.25
2022-11-28T19:11:35.067Z,23.21
2022-11-28T19:14:03.603Z,23.21
2022-11-28T19:16:33.209Z,23.19
2022-11-28T19:19:03.548Z,23.13
2022-11-28T19:21:34.243Z,23.15
2022-11-28T19:24:04.111Z,23.11
2022-11-28T19:26:34.059Z,23.09
2022-11-28T19:29:02.902Z,23.08
2022-11-28T19:31:33.182Z,23.07
2022-11-28T19:34:04.310Z,23.06
2022-11-28T19:36:34.150Z,23.01
2022-11-28T19:39:02.500Z,23.03
2022-11-28T19:41:32.331Z,22.85
2022-11-28T19:44:00.674Z,22.99
2022-11-28T19:46:35.058Z,22.99
2022-11-28T19:49:06.675Z,22.97
2022-11-28T19:51:35.322Z,22.96
2022-11-28T19:54:04.182Z,22.95
2022-11-28T19:56:34.378Z,22.94
2022-11-28T19:59:02.998Z,22.93
2022-11-28T20:01:31.099Z,22.91
2022-11-28T20:03:59.844Z,22.89
2022-11-28T20:06:32.279Z,22.51
2022-11-28T20:09:02.180Z,22.49
2022-11-28T20:11:31.968Z,22.87
2022-11-28T20:14:02.300Z,22.83
2022-11-28T20:16:32.099Z,22.86
2022-11-28T20:19:01.424Z,22.84
2022-11-28T20:21:31.961Z,22.84
2022-11-28T20:24:04.795Z,22.81
2022-11-28T20:26:37.879Z,22.82
2022-11-28T20:29:06.846Z,22.79
2022-11-28T20:31:37.477Z,22.81
2022-11-28T20:34:06.720Z,22.82
2022-11-28T20:36:36.408Z,22.47
2022-11-28T20:39:05.633Z,22.84
2022-11-28T20:41:34.535Z,22.88
2022-11-28T20:44:02.989Z,22.87
2022-11-28T20:46:33.595Z,22.91
2022-11-28T20:49:03.268Z,22.91
2022-11-28T20:51:33.105Z,22.94
2022-11-28T20:54:04.759Z,22.88
2022-11-28T20:56:51.691Z,22.86
2022-11-28T20:59:23.257Z,22.96
2022-11-28T21:01:51.217Z,22.95
2022-11-28T21:04:19.903Z,23.02
2022-11-28T21:06:49.263Z,23.02
2022-11-28T21:09:20.469Z,22.87
2022-11-28T21:11:58.455Z,23.04
2022-11-28T21:14:27.723Z,23.04
2022-11-28T21:16:55.822Z,23.05
2022-11-28T21:19:23.882Z,23.05
2022-11-28T21:21:51.892Z,23.06
2022-11-28T21:24:21.192Z,23.08
2022-11-28T21:26:53.337Z,22.91
2022-11-28T21:29:22.330Z,23.09
2022-11-28T21:31:50.318Z,23.10
2022-11-28T21:34:19.396Z,23.08
2022-11-28T21:36:47.774Z,23.12
2022-11-28T21:39:18.784Z,23.14
2022-11-28T21:41:48.391Z,23.12
2022-11-28T21:44:16.467Z,23.12
2022-11-28T21:46:44.442Z,23.13
2022-11-28T21:49:13.665Z,23.14
2022-11-28T21:51:41.764Z,23.13
2022-11-28T21:54:11.157Z,23.15
2022-11-28T21:56:39.186Z,23.15
2022-11-28T21:59:08.659Z,23.17
2022-11-28T22:01:36.733Z,23.15
2022-11-28T22:04:05.102Z,23.18
2022-11-28T22:06:33.784Z,23.19
2022-11-28T22:09:08.731Z,23.19
2022-11-28T22:11:39.485Z,23.02
2022-11-28T22:14:09.259Z,23.16
2022-11-28T22:16:38.001Z,23.09
2022-11-28T22:19:06.514Z,23.20
2022-11-28T22:21:54.491Z,23.22
2022-11-28T22:24:24.401Z,23.19
2022-11-28T22:26:52.416Z,23.14
2022-11-28T22:29:21.771Z,23.22
2022-11-28T22:31:50.118Z,23.22
2022-11-28T22:34:19.367Z,23.23
2022-11-28T22:36:47.402Z,23.23
2022-11-28T22:39:15.480Z,23.22
2022-11-28T22:41:43.527Z,23.24
2022-11-28T22:44:12.676Z,23.23
2022-11-28T22:46:41.947Z,23.22
2022-11-28T22:49:11.799Z,23.21
2022-11-28T22:51:40.765Z,23.22
2022-11-28T22:54:11.587Z,23.16
2022-11-28T22:56:40.789Z,23.21
2022-11-28T22:59:12.739Z,23.07
2022-11-28T23:01:43.513Z,23.21
2022-11-28T23:04:12.109Z,23.20
2022-11-28T23:06:40.692Z,23.20
2022-11-28T23:09:10.593Z,23.22
2022-11-28T23:11:40.590Z,23.21
2022-11-28T23:14:09.348Z,23.22
2022-11-28T23:16:38.770Z,23.21
2022-11-28T23:19:11.904Z,23.22
2022-11-28T23:21:42.319Z,23.13
2022-11-28T23:24:14.033Z,23.23
2022-11-28T23:26:42.159Z,23.23
2022-11-28T23:29:10.442Z,23.23
2022-11-28T23:31:41.852Z,23.23
2022-11-28T23:34:12.176Z,23.25
2022-11-28T23:36:43.116Z,23.20
2022-11-28T23:39:14.042Z,23.25
2022-11-28T23:41:42.683Z,23.22
2022-11-28T23:44:11.828Z,23.25
2022-11-28T23:46:40.729Z,23.26
2022-11-28T23:49:09.159Z,23.24
2022-11-28T23:51:38.601Z,23.26
2022-11-28T23:54:06.615Z,23.24
2022-11-28T23:56:36.288Z,23.24
2022-11-28T23:59:06.330Z,23.21
